Time;durP1;ratioP1;P1;durP2;ratioP2;P2;SDS_P1;SDS_P2;PMS_P1;PMS_P2;Temp;Humidity;BMP_temperature;BMP_pressure;BME280_temperature;BME280_humidity;BME280_pressure;Samples;Min_cycle;Max_cycle;Signal;HPM_P1;HPM_P2
2024/01/13 00:00:50;;;;;;;68.90;29.75;;;-1.40;99.90;;;;;;5058675;28;20028;-93
2024/01/13 00:03:16;;;;;;;70.70;27.48;;;-1.40;99.90;;;;;;5060669;28;20022;-92
2024/01/13 00:05:42;;;;;;;56.15;25.25;;;-1.50;99.90;;;;;;5041465;28;20075;-92
2024/01/13 00:08:10;;;;;;;66.22;29.88;;;-1.50;99.90;;;;;;5060168;28;20127;-92
2024/01/13 00:10:36;;;;;;;70.88;28.55;;;-1.40;99.90;;;;;;5039305;28;20080;-92
2024/01/13 00:13:04;;;;;;;66.10;27.05;;;-1.40;99.90;;;;;;5047468;28;20070;-93
2024/01/13 00:15:39;;;;;;;66.03;24.63;;;-1.40;99.90;;;;;;5039903;28;20036;-92
2024/01/13 00:18:04;;;;;;;;;;;-1.40;99.90;;;;;;5044194;28;20028;-92
2024/01/13 00:20:30;;;;;;;63.13;23.60;;;-1.40;99.90;;;;;;5061532;28;19905;-92
2024/01/13 00:22:56;;;;;;;66.65;25.50;;;-1.50;99.90;;;;;;5043559;28;20017;-93
2024/01/13 00:25:21;;;;;;;59.97;25.05;;;-1.50;99.90;;;;;;5058861;28;20495;-93
2024/01/13 00:27:47;;;;;;;63.65;25.77;;;-1.50;99.90;;;;;;5060254;28;20538;-92
2024/01/13 00:30:14;;;;;;;63.45;23.13;;;-1.50;99.90;;;;;;5044980;28;20403;-92
2024/01/13 00:32:45;;;;;;;59.47;26.92;;;-1.40;99.90;;;;;;5063777;28;20052;-92
2024/01/13 00:35:11;;;;;;;56.63;23.70;;;-1.50;99.90;;;;;;5057462;28;20200;-94
2024/01/13 00:37:50;;;;;;;64.18;24.33;;;-1.50;99.90;;;;;;5060186;28;20037;-93
2024/01/13 00:40:16;;;;;;;60.08;23.70;;;-1.50;99.90;;;;;;5047237;28;20565;-93
2024/01/13 00:42:42;;;;;;;58.00;23.20;;;-1.50;99.90;;;;;;5065700;28;20275;-93
2024/01/13 00:45:08;;;;;;;54.78;23.25;;;-1.50;99.90;;;;;;5042815;28;20037;-93
2024/01/13 00:47:36;;;;;;;54.58;22.88;;;-1.50;99.90;;;;;;5034902;28;20037;-94
2024/01/13 00:50:02;;;;;;;56.85;23.10;;;-1.50;99.90;;;;;;5046927;28;20040;-93
2024/01/13 00:52:28;;;;;;;54.92;23.27;;;-1.60;99.90;;;;;;5046113;28;20457;-93
2024/01/13 00:55:01;;;;;;;57.75;23.63;;;-1.50;99.90;;;;;;5045677;28;20025;-95
2024/01/13 00:57:30;;;;;;;58.83;26.15;;;-1.50;99.90;;;;;;5061296;28;20028;-93
2024/01/13 00:59:59;;;;;;;53.35;23.20;;;-1.60;99.90;;;;;;5062361;28;20051;-92
2024/01/13 01:02:25;;;;;;;57.53;23.33;;;-1.50;99.90;;;;;;5062535;28;20024;-93
2024/01/13 01:04:50;;;;;;;55.97;22.58;;;-1.50;99.90;;;;;;5043980;28;20017;-92
2024/01/13 01:07:19;;;;;;;56.90;24.02;;;-1.50;99.90;;;;;;5042632;28;20025;-92
2024/01/13 01:09:44;;;;;;;;;;;-1.50;99.90;;;;;;5068437;28;20056;-92
2024/01/13 01:12:10;;;;;;;48.22;22.45;;;-1.60;99.90;;;;;;5043127;28;19905;-92
2024/01/13 01:14:36;;;;;;;52.45;22.73;;;-1.60;99.90;;;;;;5059471;28;20071;-92
2024/01/13 01:17:02;;;;;;;56.30;21.90;;;-1.60;99.90;;;;;;5062070;28;20028;-93
2024/01/13 01:19:30;;;;;;;54.00;21.50;;;-1.60;99.90;;;;;;5062880;28;20637;-94
2024/01/13 01:21:56;;;;;;;54.38;24.02;;;-1.60;99.90;;;;;;5047515;28;20032;-92
2024/01/13 01:24:39;;;;;;;58.55;26.67;;;-1.60;99.90;;;;;;5059022;28;20021;-93
2024/01/13 01:27:05;;;;;;;57.35;23.80;;;-1.60;99.90;;;;;;5041960;28;20544;-93
2024/01/13 01:29:33;;;;;;;48.65;22.65;;;-1.70;99.90;;;;;;5049446;28;20029;-92
2024/01/13 01:31:59;;;;;;;59.70;25.90;;;-1.60;99.90;;;;;;5036687;28;20116;-93
2024/01/13 01:34:34;;;;;;;61.40;23.05;;;-1.60;99.90;;;;;;5062440;28;20483;-94
2024/01/13 01:36:59;;;;;;;56.97;23.08;;;-1.60;99.90;;;;;;5054072;28;20029;-93
2024/01/13 01:39:25;;;;;;;45.95;21.77;;;-1.60;99.90;;;;;;5062020;28;20021;-93
2024/01/13 01:41:53;;;;;;;46.95;22.05;;;-1.60;99.90;;;;;;5043216;28;20423;-94
2024/01/13 01:44:19;;;;;;;48.90;23.95;;;-1.60;99.90;;;;;;5044408;28;20112;-93
2024/01/13 01:46:49;;;;;;;53.17;23.20;;;-1.70;99.90;;;;;;5062381;28;20029;-93
2024/01/13 01:49:18;;;;;;;59.75;24.15;;;-1.70;99.90;;;;;;5062548;28;20502;-93
2024/01/13 01:51:44;;;;;;;53.35;22.60;;;-1.70;99.90;;;;;;5061479;28;20028;-93
2024/01/13 01:54:13;;;;;;;59.90;23.40;;;-1.70;99.90;;;;;;5060352;28;20048;-94
2024/01/13 01:56:39;;;;;;;55.42;24.63;;;-1.70;99.90;;;;;;5043695;28;20032;-93
2024/01/13 01:59:06;;;;;;;50.50;22.50;;;-1.80;99.90;;;;;;5054160;28;20099;-93
2024/01/13 02:01:32;;;;;;;46.47;22.35;;;-1.70;99.90;;;;;;5038602;28;20051;-92
2024/01/13 02:04:00;;;;;;;44.85;20.85;;;-1.80;99.90;;;;;;5060650;28;20715;-93
2024/01/13 02:06:33;;;;;;;49.05;20.63;;;-1.80;99.90;;;;;;5042269;28;20029;-92
2024/01/13 02:09:00;;;;;;;52.65;23.33;;;-1.80;99.90;;;;;;5070096;28;20021;-94
2024/01/13 02:11:28;;;;;;;47.00;21.75;;;-1.80;99.90;;;;;;5056958;28;20025;-92
2024/01/13 02:13:54;;;;;;;47.30;21.73;;;-1.90;99.90;;;;;;5062609;28;20025;-93
2024/01/13 02:16:19;;;;;;;54.70;21.90;;;-1.90;99.90;;;;;;5062653;28;20503;-93
2024/01/13 02:18:45;;;;;;;52.88;24.30;;;-1.90;99.90;;;;;;5048679;28;20017;-94
2024/01/13 02:21:12;;;;;;;48.38;22.40;;;-2.00;99.90;;;;;;5051773;28;20037;-94
2024/01/13 02:23:43;;;;;;;47.72;21.15;;;-1.90;99.90;;;;;;5059771;28;20021;-92
2024/01/13 02:26:12;;;;;;;54.55;24.75;;;-1.90;99.90;;;;;;5061376;28;20025;-93
2024/01/13 02:28:40;;;;;;;44.28;22.35;;;-1.90;99.90;;;;;;5047252;28;20100;-92
2024/01/13 02:31:05;;;;;;;45.97;22.00;;;-1.90;99.90;;;;;;5061159;28;20630;-94
2024/01/13 02:33:31;;;;;;;49.97;22.38;;;-1.90;99.90;;;;;;5043778;28;20044;-92
2024/01/13 02:35:57;;;;;;;48.78;22.60;;;-1.90;99.90;;;;;;5048554;28;20057;-94
2024/01/13 02:38:22;;;;;;;46.85;22.42;;;-2.00;99.90;;;;;;5057254;28;20113;-93
2024/01/13 02:40:48;;;;;;;45.33;20.45;;;-1.90;99.90;;;;;;5049167;28;20047;-95
2024/01/13 02:43:14;;;;;;;50.80;22.30;;;-2.00;99.90;;;;;;5038288;28;20043;-91
2024/01/13 02:45:45;;;;;;;46.45;21.90;;;-1.90;99.90;;;;;;5063211;28;20081;-93
2024/01/13 02:48:19;;;;;;;44.08;19.75;;;-2.00;99.90;;;;;;5053919;28;20025;-93
2024/01/13 02:50:57;;;;;;;38.03;17.75;;;-2.00;99.90;;;;;;5050885;28;20025;-92
2024/01/13 02:53:22;;;;;;;39.28;19.80;;;-2.00;99.90;;;;;;5058098;28;20021;-93
2024/01/13 02:55:48;;;;;;;45.65;19.90;;;-2.00;99.90;;;;;;5042592;28;20604;-93
2024/01/13 02:58:14;;;;;;;41.90;19.42;;;-2.00;99.90;;;;;;5059182;28;20047;-93
2024/01/13 03:00:40;;;;;;;54.47;24.25;;;-1.90;99.90;;;;;;5059487;28;20033;-92
2024/01/13 03:03:06;;;;;;;47.35;22.50;;;-2.00;99.90;;;;;;5059933;28;20563;-94
2024/01/13 03:05:31;;;;;;;45.30;21.05;;;-2.00;99.90;;;;;;5067655;28;20027;-92
2024/01/13 03:07:57;;;;;;;51.40;20.98;;;-2.00;99.90;;;;;;5059562;28;20391;-93
2024/01/13 03:10:23;;;;;;;46.25;23.70;;;-2.00;99.90;;;;;;5060650;28;20029;-94
2024/01/13 03:12:49;;;;;;;46.70;22.58;;;-2.00;99.90;;;;;;5059891;28;20035;-94
2024/01/13 03:15:15;;;;;;;45.03;19.25;;;-2.10;99.90;;;;;;5044533;28;20488;-94
2024/01/13 03:17:41;;;;;;;45.00;20.80;;;-2.00;99.90;;;;;;5050016;28;20025;-94
2024/01/13 03:20:07;;;;;;;44.38;20.58;;;-2.00;99.90;;;;;;5048948;28;20013;-94
2024/01/13 03:22:36;;;;;;;48.42;21.42;;;-2.00;99.90;;;;;;5055333;28;20023;-93
2024/01/13 03:25:01;;;;;;;41.60;21.48;;;-2.00;99.90;;;;;;5059852;28;20032;-92
2024/01/13 03:27:27;;;;;;;39.20;19.63;;;-2.00;99.90;;;;;;5060776;28;20037;-95
2024/01/13 03:29:53;;;;;;;40.90;17.23;;;-2.00;99.90;;;;;;5060443;28;20412;-93
2024/01/13 03:32:18;;;;;;;43.97;19.27;;;-1.90;99.90;;;;;;5043348;28;20435;-94
2024/01/13 03:34:44;;;;;;;35.38;17.75;;;-1.90;99.90;;;;;;5060619;28;20029;-93
2024/01/13 03:37:10;;;;;;;44.15;21.08;;;-1.90;99.90;;;;;;5048245;28;20066;-93
2024/01/13 03:39:36;;;;;;;40.05;19.77;;;-1.90;99.90;;;;;;5069061;28;20041;-93
2024/01/13 03:42:02;;;;;;;46.70;18.92;;;-1.90;99.90;;;;;;5061422;28;20020;-92
2024/01/13 03:44:28;;;;;;;35.05;20.67;;;-2.00;99.90;;;;;;5043510;28;20021;-94
2024/01/13 03:46:53;;;;;;;42.75;21.83;;;-2.00;99.90;;;;;;5042720;28;20063;-93
2024/01/13 03:49:19;;;;;;;44.85;19.50;;;-2.00;99.90;;;;;;5065535;28;20369;-93
2024/01/13 03:51:48;;;;;;;35.42;18.55;;;-2.00;99.90;;;;;;5072211;28;20025;-93
2024/01/13 03:54:14;;;;;;;36.58;18.77;;;-2.00;99.90;;;;;;5077140;28;20033;-92
2024/01/13 03:56:49;;;;;;;38.63;20.63;;;-2.10;99.90;;;;;;5058590;28;20049;-93
2024/01/13 03:59:15;;;;;;;37.40;20.33;;;-2.10;99.90;;;;;;5076462;28;20063;-92
2024/01/13 04:01:41;;;;;;;41.63;21.05;;;-2.00;99.90;;;;;;5074954;28;20021;-94
2024/01/13 04:04:07;;;;;;;39.72;19.85;;;-1.90;99.90;;;;;;5066061;28;20036;-92
2024/01/13 04:06:33;;;;;;;42.10;19.50;;;-1.90;99.90;;;;;;5051117;28;20066;-92
2024/01/13 04:08:58;;;;;;;40.95;20.30;;;-1.90;99.90;;;;;;5034549;28;20029;-93
2024/01/13 04:11:24;;;;;;;39.30;17.08;;;-2.00;99.90;;;;;;5052812;28;20021;-93
2024/01/13 04:13:53;;;;;;;41.20;18.45;;;-2.00;99.90;;;;;;5043021;28;20138;-95
2024/01/13 04:16:24;;;;;;;;;;;-2.10;99.90;;;;;;5060512;28;20040;-93
2024/01/13 04:18:52;;;;;;;35.20;17.70;;;-2.10;99.90;;;;;;5058067;28;19909;-92
2024/01/13 04:21:18;;;;;;;35.08;17.45;;;-2.20;99.90;;;;;;5038598;28;20025;-93
2024/01/13 04:23:48;;;;;;;37.03;20.20;;;-2.10;99.90;;;;;;5061569;28;20033;-93
2024/01/13 04:26:14;;;;;;;38.10;19.50;;;-2.10;99.90;;;;;;5040755;28;20094;-92
2024/01/13 04:28:43;;;;;;;36.63;18.13;;;-2.00;99.90;;;;;;5046010;28;20408;-92
2024/01/13 04:31:09;;;;;;;44.88;21.02;;;-2.10;99.90;;;;;;5042025;28;20028;-93
2024/01/13 04:33:34;;;;;;;39.33;21.63;;;-2.00;99.90;;;;;;5061481;28;20030;-92
2024/01/13 04:36:04;;;;;;;34.30;19.45;;;-2.00;99.90;;;;;;5060872;28;20204;-92
2024/01/13 04:38:30;;;;;;;49.10;20.98;;;-2.00;99.90;;;;;;5060222;28;20495;-93
2024/01/13 04:40:55;;;;;;;47.42;20.52;;;-2.10;99.90;;;;;;5060498;28;20119;-95
2024/01/13 04:43:31;;;;;;;42.05;19.65;;;-2.10;99.90;;;;;;5059365;28;20056;-94
2024/01/13 04:45:57;;;;;;;39.25;19.83;;;-2.10;99.90;;;;;;5054177;28;20554;-94
2024/01/13 04:48:23;;;;;;;41.90;19.55;;;-2.10;99.90;;;;;;5041327;28;20045;-94
2024/01/13 04:50:50;;;;;;;43.38;19.75;;;-2.00;99.90;;;;;;5044115;28;20028;-93
2024/01/13 04:53:16;;;;;;;38.60;20.33;;;-2.00;99.90;;;;;;5044704;28;20089;-93
2024/01/13 04:55:42;;;;;;;43.75;20.17;;;-2.00;99.90;;;;;;5062006;28;20037;-94
2024/01/13 04:58:08;;;;;;;42.08;20.63;;;-2.00;99.90;;;;;;5065878;28;20055;-93
2024/01/13 05:00:35;;;;;;;48.00;20.30;;;-2.00;99.90;;;;;;5035060;28;20021;-92
2024/01/13 05:03:01;;;;;;;57.28;22.60;;;-2.00;99.90;;;;;;5068021;28;20098;-94
2024/01/13 05:05:30;;;;;;;39.58;18.67;;;-2.10;99.90;;;;;;5054592;28;20034;-92
2024/01/13 05:07:56;;;;;;;43.78;22.80;;;-2.20;99.90;;;;;;5055388;28;20033;-93
2024/01/13 05:10:23;;;;;;;42.47;20.33;;;-2.20;99.90;;;;;;5062989;28;20021;-93
2024/01/13 05:12:48;;;;;;;48.17;21.60;;;-2.10;99.90;;;;;;5057397;28;20052;-93
2024/01/13 05:15:14;;;;;;;43.88;21.73;;;-2.10;99.90;;;;;;5036983;28;20029;-94
2024/01/13 05:17:40;;;;;;;43.42;20.60;;;-2.00;99.90;;;;;;5061285;28;20025;-93
2024/01/13 05:20:06;;;;;;;42.53;20.33;;;-2.00;99.90;;;;;;5062670;28;20014;-93
2024/01/13 05:22:33;;;;;;;43.70;19.67;;;-2.00;99.90;;;;;;5063995;28;20025;-94
2024/01/13 05:24:59;;;;;;;43.45;18.67;;;-2.00;99.90;;;;;;5064020;28;20033;-93
2024/01/13 05:27:25;;;;;;;40.95;19.50;;;-2.00;99.90;;;;;;5044165;28;20032;-94
2024/01/13 05:29:51;;;;;;;43.65;21.25;;;-2.00;99.90;;;;;;5044247;28;20120;-94
2024/01/13 05:32:22;;;;;;;41.50;19.42;;;-2.00;99.90;;;;;;5066558;28;20093;-93
2024/01/13 05:34:50;;;;;;;45.05;19.50;;;-2.10;99.90;;;;;;5057157;28;20026;-93
2024/01/13 05:37:16;;;;;;;42.90;20.40;;;-2.00;99.90;;;;;;5063952;28;20036;-93
2024/01/13 05:39:42;;;;;;;49.17;21.75;;;-2.10;99.90;;;;;;5051076;28;20018;-93
2024/01/13 05:42:08;;;;;;;45.17;19.23;;;-2.00;99.90;;;;;;5072128;28;20021;-93
2024/01/13 05:44:34;;;;;;;42.67;20.98;;;-2.00;99.90;;;;;;5056866;28;20024;-94
2024/01/13 05:47:00;;;;;;;36.45;19.48;;;-2.00;99.90;;;;;;5060704;28;20054;-93
2024/01/13 05:49:26;;;;;;;41.70;20.20;;;-2.00;99.90;;;;;;5066856;28;20037;-93
2024/01/13 05:51:52;;;;;;;39.90;16.52;;;-1.90;99.90;;;;;;5043006;28;21446;-94
2024/01/13 05:54:20;;;;;;;33.50;16.67;;;-1.90;99.90;;;;;;5062144;28;20031;-93
2024/01/13 05:56:46;;;;;;;38.03;19.23;;;-1.90;99.90;;;;;;5060767;28;20025;-93
2024/01/13 05:59:14;;;;;;;36.13;19.83;;;-1.90;99.90;;;;;;5050566;28;20055;-92
2024/01/13 06:01:40;;;;;;;;;;;-1.90;99.90;;;;;;5052301;28;20039;-93
2024/01/13 06:04:11;;;;;;;41.50;20.65;;;-1.90;99.90;;;;;;5061565;28;19908;-93
2024/01/13 06:06:37;;;;;;;43.25;20.63;;;-1.90;99.90;;;;;;5049040;28;20084;-93
2024/01/13 06:09:03;;;;;;;40.70;20.30;;;-1.90;99.90;;;;;;5063219;28;20013;-94
2024/01/13 06:11:35;;;;;;;40.17;18.98;;;-2.00;99.90;;;;;;5059559;28;20017;-95
2024/01/13 06:14:00;;;;;;;38.97;18.58;;;-1.90;99.90;;;;;;5034387;28;20238;-93
2024/01/13 06:16:26;;;;;;;40.45;19.95;;;-1.90;99.90;;;;;;5044099;28;20051;-93
2024/01/13 06:18:52;;;;;;;40.50;18.63;;;-1.90;99.90;;;;;;5067543;28;20025;-93
2024/01/13 06:21:24;;;;;;;43.80;21.73;;;-1.90;99.90;;;;;;5045984;28;20476;-94
2024/01/13 06:23:56;;;;;;;39.28;20.30;;;-1.90;99.90;;;;;;5043979;28;20057;-94
2024/01/13 06:26:28;;;;;;;44.95;20.33;;;-2.00;99.90;;;;;;5076579;28;20039;-92
2024/01/13 06:28:53;;;;;;;39.08;19.80;;;-2.00;99.90;;;;;;5069167;28;20020;-92
2024/01/13 06:31:19;;;;;;;50.28;21.65;;;-2.00;99.90;;;;;;5069667;28;20074;-94
2024/01/13 06:33:45;;;;;;;46.47;22.58;;;-2.00;99.90;;;;;;5044977;28;20017;-94
2024/01/13 06:36:11;;;;;;;46.50;18.90;;;-2.10;99.90;;;;;;5063055;28;20114;-93
2024/01/13 06:38:37;;;;;;;44.13;20.05;;;-2.10;99.90;;;;;;5060781;28;20021;-93
2024/01/13 06:41:08;;;;;;;39.83;22.70;;;-2.00;99.90;;;;;;5041843;28;20081;-93
2024/01/13 06:43:34;;;;;;;49.47;21.83;;;-2.00;99.90;;;;;;5061231;28;20051;-94
2024/01/13 06:46:00;;;;;;;48.05;21.58;;;-1.90;99.90;;;;;;5047358;28;20044;-94
2024/01/13 06:48:29;;;;;;;43.55;20.33;;;-1.90;99.90;;;;;;5065276;28;20024;-93
2024/01/13 06:50:55;;;;;;;49.53;22.30;;;-1.90;99.90;;;;;;5047118;28;20021;-92
2024/01/13 06:53:21;;;;;;;48.08;24.25;;;-1.90;99.90;;;;;;5052044;28;20030;-94
2024/01/13 06:55:49;;;;;;;46.08;23.70;;;-1.90;99.90;;;;;;5051648;28;20033;-92
2024/01/13 06:58:18;;;;;;;53.05;26.70;;;-1.90;99.90;;;;;;5057487;28;20056;-93
2024/01/13 07:00:46;;;;;;;49.00;23.60;;;-1.90;99.90;;;;;;5044027;28;20120;-94
2024/01/13 07:03:12;;;;;;;60.50;24.67;;;-2.00;99.90;;;;;;5076258;28;20036;-93
2024/01/13 07:05:38;;;;;;;50.80;22.95;;;-2.00;99.90;;;;;;5047713;28;20040;-93
2024/01/13 07:08:05;;;;;;;47.08;21.50;;;-2.00;99.90;;;;;;5046373;28;20025;-94
2024/01/13 07:10:32;;;;;;;48.28;19.63;;;-2.00;99.90;;;;;;5061412;28;20250;-94
2024/01/13 07:13:01;;;;;;;47.08;21.35;;;-1.90;99.90;;;;;;5028378;28;20059;-94
2024/01/13 07:15:26;;;;;;;51.47;23.17;;;-1.90;99.90;;;;;;5062038;28;20039;-93
2024/01/13 07:17:56;;;;;;;45.80;22.58;;;-1.90;99.90;;;;;;5061271;28;20045;-93
2024/01/13 07:20:24;;;;;;;49.28;21.77;;;-1.90;99.90;;;;;;5057541;28;20059;-94
2024/01/13 07:22:50;;;;;;;52.67;19.95;;;-1.90;99.90;;;;;;5060035;28;20258;-92
2024/01/13 07:25:16;;;;;;;47.38;23.20;;;-1.90;99.90;;;;;;5059386;28;20032;-92
2024/01/13 07:27:42;;;;;;;50.25;24.55;;;-1.90;99.90;;;;;;5067734;28;20075;-94
2024/01/13 07:30:10;;;;;;;49.33;23.00;;;-2.00;99.90;;;;;;5053623;28;20017;-94
2024/01/13 07:42:45;;;;;;;50.08;21.50;;;-1.90;99.90;;;;;;5058241;28;20025;-94
2024/01/13 07:45:11;;;;;;;52.67;23.55;;;-1.90;99.90;;;;;;5074808;23;20051;-94
2024/01/13 07:47:37;;;;;;;50.47;22.83;;;-1.90;99.90;;;;;;5044598;28;20036;-94
2024/01/13 07:50:03;;;;;;;58.70;25.75;;;-1.90;99.90;;;;;;5037714;28;20047;-93
2024/01/13 07:52:29;;;;;;;55.90;25.27;;;-1.90;99.90;;;;;;5014861;28;20116;-94
2024/01/13 07:54:55;;;;;;;59.33;28.20;;;-1.90;99.90;;;;;;5036487;28;20022;-96
2024/01/13 07:57:21;;;;;;;44.10;23.88;;;-1.90;99.90;;;;;;5043674;28;20030;-94
2024/01/13 07:59:47;;;;;;;48.78;24.58;;;-1.90;99.90;;;;;;5042861;28;20056;-93
2024/01/13 08:02:14;;;;;;;46.40;21.38;;;-1.90;99.90;;;;;;5024522;28;20026;-94
2024/01/13 08:04:43;;;;;;;52.03;23.13;;;-1.90;99.90;;;;;;5035980;28;20026;-94
2024/01/13 08:07:09;;;;;;;52.28;23.60;;;-1.80;99.90;;;;;;5038587;28;20121;-91
2024/01/13 08:09:34;;;;;;;51.63;26.20;;;-1.90;99.90;;;;;;5017649;28;20032;-94
2024/01/13 08:12:00;;;;;;;49.67;26.10;;;-1.90;99.90;;;;;;5044256;28;20025;-92
2024/01/13 08:14:26;;;;;;;52.30;27.50;;;-2.00;99.90;;;;;;5031650;28;20438;-93
2024/01/13 08:16:52;;;;;;;56.55;26.70;;;-2.00;99.90;;;;;;5045675;28;20035;-94
2024/01/13 08:19:17;;;;;;;54.42;28.02;;;-2.00;99.90;;;;;;5060685;28;20025;-94
2024/01/13 08:21:45;;;;;;;49.30;23.92;;;-2.00;99.90;;;;;;5046297;28;20060;-94
2024/01/13 08:24:11;;;;;;;55.17;25.58;;;-1.90;99.90;;;;;;5059081;28;20022;-94
2024/01/13 08:26:41;;;;;;;54.13;26.33;;;-1.90;99.90;;;;;;5039283;28;20029;-92
2024/01/13 08:29:07;;;;;;;51.33;28.08;;;-1.90;99.90;;;;;;5055855;28;20415;-94
2024/01/13 08:31:32;;;;;;;55.97;28.13;;;-1.80;99.90;;;;;;5032708;28;20029;-91
2024/01/13 08:33:58;;;;;;;52.63;26.20;;;-1.80;99.90;;;;;;5039220;28;20029;-93
2024/01/13 08:36:31;;;;;;;55.58;27.08;;;-1.90;99.90;;;;;;5030602;28;20060;-94
2024/01/13 08:38:56;;;;;;;59.60;26.15;;;-1.90;99.90;;;;;;5059858;28;20025;-94
2024/01/13 08:41:22;;;;;;;67.15;27.52;;;-1.90;99.90;;;;;;5051449;28;20036;-94
2024/01/13 08:43:48;;;;;;;65.90;30.58;;;-1.70;99.90;;;;;;5030214;28;20032;-94
2024/01/13 08:46:14;;;;;;;61.10;28.08;;;-1.80;99.90;;;;;;5030832;28;20025;-94
2024/01/13 08:48:40;;;;;;;59.45;27.33;;;-1.70;99.90;;;;;;5030869;28;20492;-93
2024/01/13 08:51:13;;;;;;;61.05;28.65;;;-1.70;99.90;;;;;;5065596;28;20025;-95
2024/01/13 08:53:39;;;;;;;61.70;23.45;;;-1.80;99.90;;;;;;5030583;28;20319;-89
2024/01/13 08:56:05;;;;;;;66.93;26.83;;;-1.70;99.90;;;;;;5027092;28;20036;-94
2024/01/13 08:58:31;;;;;;;61.33;30.40;;;-1.70;99.90;;;;;;5023409;28;20543;-95
2024/01/13 09:00:58;;;;;;;64.18;24.80;;;-1.70;99.90;;;;;;5036350;28;20079;-94
2024/01/13 09:03:25;;;;;;;63.50;27.42;;;-1.70;99.90;;;;;;5019061;28;20056;-93
2024/01/13 09:05:54;;;;;;;86.85;38.28;;;-1.70;99.90;;;;;;5015290;28;20034;-94
2024/01/13 09:08:20;;;;;;;73.65;33.28;;;-1.70;99.90;;;;;;5035907;28;20032;-94
2024/01/13 09:10:55;;;;;;;66.78;29.35;;;-1.70;99.90;;;;;;5052889;28;20021;-93
2024/01/13 09:13:29;;;;;;;63.20;30.15;;;-1.70;99.90;;;;;;5055831;28;20033;-94
2024/01/13 09:15:55;;;;;;;69.22;30.25;;;-1.70;99.90;;;;;;5017883;28;20033;-92
2024/01/13 09:18:20;;;;;;;64.00;29.85;;;-1.70;99.90;;;;;;5050555;28;20005;-91
2024/01/13 09:20:49;;;;;;;70.32;28.60;;;-1.60;99.90;;;;;;5050317;28;20033;-92
2024/01/13 09:23:23;;;;;;;66.78;28.60;;;-1.60;99.90;;;;;;5031589;28;20113;-93
2024/01/13 09:25:51;;;;;;;69.43;29.55;;;-1.70;99.90;;;;;;5023220;28;20036;-93
2024/01/13 09:28:20;;;;;;;71.25;31.38;;;-1.60;99.90;;;;;;5040801;28;20066;-93
2024/01/13 09:31:01;;;;;;;78.40;31.88;;;-1.70;99.90;;;;;;5034858;28;20060;-94
2024/01/13 09:33:33;;;;;;;70.63;29.13;;;-1.70;99.90;;;;;;5017417;28;20026;-92
2024/01/13 09:36:07;;;;;;;67.00;29.73;;;-1.70;99.90;;;;;;5013188;28;20044;-93
2024/01/13 09:38:43;;;;;;;124.82;53.33;;;-1.70;99.90;;;;;;5050464;28;20104;-93
2024/01/13 09:41:14;;;;;;;95.93;49.03;;;-1.80;99.90;;;;;;5017496;28;20034;-91
2024/01/13 09:44:10;;;;;;;73.15;29.85;;;-1.70;99.90;;;;;;5031465;28;20033;-93
2024/01/13 09:46:45;;;;;;;83.72;34.30;;;-1.70;99.90;;;;;;5030486;28;20029;-92
2024/01/13 09:49:24;;;;;;;52.65;23.60;;;-1.60;99.90;;;;;;5046751;28;20445;-93
2024/01/13 09:51:52;;;;;;;61.72;30.33;;;-1.60;99.90;;;;;;5032777;28;20075;-92
2024/01/13 09:57:45;;;;;;;63.17;25.75;;;-1.60;99.90;;;;;;5064205;28;20052;-92
2024/01/13 10:00:19;;;;;;;63.83;25.95;;;-1.60;99.90;;;;;;5071109;28;20021;-93
2024/01/13 10:06:26;;;;;;;53.80;22.83;;;-1.70;99.90;;;;;;5008106;28;20045;-91
2024/01/13 10:08:53;;;;;;;57.00;24.25;;;-1.60;99.90;;;;;;5069765;22;20061;-90
2024/01/13 10:11:21;;;;;;;66.50;26.25;;;-1.60;99.90;;;;;;5032118;28;20036;-89
2024/01/13 10:14:07;;;;;;;51.80;25.92;;;-1.70;99.90;;;;;;5056310;28;20496;-90
2024/01/13 10:20:13;;;;;;;;;;;;;;;;;;;;;
2024/01/13 10:23:39;;;;;;;57.33;23.70;;;-1.70;99.90;;;;;;4995213;28;20029;-90
2024/01/13 10:26:36;;;;;;;54.53;23.48;;;-1.70;99.90;;;;;;5036992;28;20048;-88
2024/01/13 10:29:36;;;;;;;;;;;;;;;;;;;;;
2024/01/13 10:32:38;;;;;;;48.38;22.20;;;-1.60;99.90;;;;;;5027032;28;20102;-91
2024/01/13 10:35:08;;;;;;;69.07;31.17;;;-1.60;99.90;;;;;;5035056;28;20033;-91
2024/01/13 10:41:09;;;;;;;39.20;14.43;;;-1.60;99.90;;;;;;4991468;28;20430;-90
2024/01/13 10:43:38;;;;;;;40.75;21.30;;;-1.60;99.90;;;;;;5051742;28;20034;-90
2024/01/13 10:46:49;;;;;;;45.90;19.20;;;-1.70;99.90;;;;;;5048578;28;20048;-90
2024/01/13 10:49:46;;;;;;;44.75;21.38;;;-1.70;99.90;;;;;;5006330;28;20036;-90
2024/01/13 10:52:37;;;;;;;42.72;22.15;;;-1.70;99.90;;;;;;4987903;28;20029;-90
2024/01/13 10:57:53;;;;;;;35.65;19.17;;;-1.70;99.90;;;;;;5145909;23;20061;-91
2024/01/13 11:00:23;;;;;;;37.75;19.02;;;-1.70;99.90;;;;;;4984630;28;20041;-93
2024/01/13 11:02:53;;;;;;;32.42;17.13;;;-1.70;99.90;;;;;;5000701;28;20037;-88
2024/01/13 11:05:32;;;;;;;33.97;17.50;;;-1.70;99.90;;;;;;5006729;28;20072;-91
2024/01/13 11:08:36;;;;;;;26.33;16.60;;;-1.70;99.90;;;;;;4978875;28;20113;-89
2024/01/13 11:11:42;;;;;;;43.60;20.10;;;-1.70;99.90;;;;;;4971333;28;20025;-90
2024/01/13 11:14:42;;;;;;;;;;;;;;;;;;;;;
2024/01/13 11:17:25;;;;;;;43.40;20.52;;;-1.80;99.90;;;;;;4980999;28;20046;-90
2024/01/13 11:20:11;;;;;;;43.90;21.10;;;-1.80;99.90;;;;;;4988777;28;20104;-90
2024/01/13 11:22:39;;;;;;;41.30;19.10;;;-1.80;99.90;;;;;;4971915;28;20037;-90
2024/01/13 11:25:31;;;;;;;45.33;21.92;;;-1.80;99.90;;;;;;4970490;28;20038;-91
2024/01/13 11:28:12;;;;;;;48.08;20.55;;;-1.80;99.90;;;;;;4962645;28;20027;-90
2024/01/13 11:33:45;;;;;;;48.15;20.63;;;-1.90;99.90;;;;;;4952256;28;20034;-91
2024/01/13 11:36:12;;;;;;;50.33;20.42;;;-1.90;99.90;;;;;;4962985;28;20038;-90
2024/01/13 11:39:06;;;;;;;53.20;22.85;;;-1.90;99.90;;;;;;4987734;28;20510;-91
2024/01/13 11:41:58;;;;;;;53.40;19.33;;;-1.90;99.90;;;;;;4989380;28;20053;-90
2024/01/13 11:44:35;;;;;;;53.53;23.30;;;-2.00;99.90;;;;;;4968579;28;20022;-90
2024/01/13 11:47:13;;;;;;;52.63;20.60;;;-2.00;99.90;;;;;;4986759;28;20026;-91
2024/01/13 11:49:53;;;;;;;63.03;23.55;;;-2.00;99.90;;;;;;4985697;28;20034;-91
2024/01/13 11:52:32;;;;;;;47.13;21.05;;;-2.00;99.90;;;;;;4983337;28;20121;-90
2024/01/13 11:55:27;;;;;;;39.95;19.83;;;-2.10;99.90;;;;;;4969572;28;20035;-91
2024/01/13 11:57:56;;;;;;;53.28;21.63;;;-2.10;99.90;;;;;;4923560;28;20059;-90
2024/01/13 12:00:23;;;;;;;54.42;23.25;;;-2.10;99.90;;;;;;4919580;29;20091;-90
2024/01/13 12:02:57;;;;;;;61.08;26.38;;;-2.10;99.90;;;;;;4994412;28;20038;-91
2024/01/13 12:05:24;;;;;;;43.63;20.35;;;-2.10;99.90;;;;;;4999293;28;20030;-91
2024/01/13 12:08:15;;;;;;;55.03;23.48;;;-2.10;99.90;;;;;;4997894;28;20038;-91
2024/01/13 12:10:44;;;;;;;41.85;20.15;;;-2.10;99.90;;;;;;5018473;28;20122;-91
2024/01/13 12:13:17;;;;;;;57.22;22.30;;;-2.10;99.90;;;;;;4993665;28;20023;-90
2024/01/13 12:15:47;;;;;;;40.63;22.52;;;-2.10;99.90;;;;;;4998434;23;20518;-91
2024/01/13 12:18:21;;;;;;;53.55;24.33;;;-2.20;99.90;;;;;;5054864;28;20037;-91
2024/01/13 12:20:55;;;;;;;53.53;23.60;;;-2.20;99.90;;;;;;5059942;28;20017;-90
2024/01/13 12:23:21;;;;;;;56.90;22.70;;;-2.20;99.90;;;;;;5058617;28;20099;-91
2024/01/13 12:25:47;;;;;;;53.63;23.40;;;-2.20;99.90;;;;;;5060748;28;20135;-90
2024/01/13 12:28:13;;;;;;;57.13;25.98;;;-2.20;99.90;;;;;;5057633;28;20059;-91
2024/01/13 12:30:42;;;;;;;57.67;25.67;;;-2.30;99.90;;;;;;5059144;28;20025;-91
2024/01/13 12:33:07;;;;;;;53.88;24.92;;;-2.30;99.90;;;;;;5061365;28;20031;-93
2024/01/13 12:35:33;;;;;;;71.70;34.50;;;-2.30;99.90;;;;;;5062051;28;20111;-92
2024/01/13 12:38:00;;;;;;;49.33;22.85;;;-2.40;99.90;;;;;;5060630;28;20028;-90
2024/01/13 12:40:28;;;;;;;55.13;21.38;;;-2.40;99.90;;;;;;5066180;28;20084;-92
2024/01/13 12:42:58;;;;;;;57.88;23.13;;;-2.40;99.90;;;;;;5066051;28;20441;-91
2024/01/13 12:46:24;;;;;;;62.75;27.23;;;-2.40;99.90;;;;;;5119918;22;20047;-95
2024/01/13 12:48:54;;;;;;;51.60;25.77;;;-2.50;99.90;;;;;;5010294;28;20108;-94
2024/01/13 12:54:43;;;;;;;61.88;25.90;;;-2.50;99.90;;;;;;5011765;28;20033;-93
2024/01/13 12:59:48;;;;;;;63.40;27.30;;;-2.60;99.90;;;;;;5200639;22;20063;-91
2024/01/13 13:02:18;;;;;;;73.65;28.92;;;-2.50;99.90;;;;;;5118255;27;20035;-94
2024/01/13 13:04:46;;;;;;;78.50;31.48;;;-2.50;99.90;;;;;;5122705;28;20009;-93
2024/01/13 13:07:32;;;;;;;72.22;26.25;;;-2.40;99.90;;;;;;5097315;28;20074;-93
2024/01/13 13:10:09;;;;;;;61.50;27.45;;;-2.50;99.90;;;;;;5094353;28;20038;-92
2024/01/13 13:12:37;;;;;;;65.00;28.33;;;-2.50;99.90;;;;;;5095352;28;20025;-92
2024/01/13 13:15:09;;;;;;;72.70;29.88;;;-2.50;99.90;;;;;;5096506;28;20000;-93
2024/01/13 13:17:50;;;;;;;64.03;25.17;;;-2.40;99.90;;;;;;5089273;28;20509;-95
2024/01/13 13:20:49;;;;;;;72.95;27.20;;;-2.40;99.90;;;;;;5107169;28;20048;-93